Time;durP1;ratioP1;P1;durP2;ratioP2;P2;SDS_P1;SDS_P2;PMS_P1;PMS_P2;Temp;Humidity;BMP_temperature;BMP_pressure;BME280_temperature;BME280_humidity;BME280_pressure;Samples;Min_cycle;Max_cycle;Signal;HPM_P1;HPM_P2
2023/03/29 00:02:18;;;;;;;4.82;3.55;;;8.00;94.90;;;;;;5096123;28;20532;-77
2023/03/29 00:04:49;;;;;;;4.32;3.00;;;7.90;94.90;;;;;;5095216;28;20613;-76
2023/03/29 00:07:16;;;;;;;10.13;3.65;;;7.90;95.20;;;;;;5096031;28;20288;-78
2023/03/29 00:09:42;;;;;;;7.75;3.13;;;7.90;95.40;;;;;;5094936;28;20264;-77
2023/03/29 00:12:10;;;;;;;4.18;3.70;;;7.90;95.30;;;;;;5095732;28;20565;-77
2023/03/29 00:14:38;;;;;;;5.50;3.10;;;7.90;95.30;;;;;;5095268;28;20223;-76
2023/03/29 00:17:06;;;;;;;5.68;3.03;;;7.90;95.40;;;;;;5094861;28;20231;-77
2023/03/29 00:19:35;;;;;;;6.72;3.08;;;8.00;95.50;;;;;;5095039;28;20227;-77
2023/03/29 00:22:04;;;;;;;5.70;2.67;;;7.90;95.50;;;;;;5095788;28;20243;-76
2023/03/29 00:24:31;;;;;;;4.63;3.80;;;7.90;95.30;;;;;;5094120;28;20219;-76
2023/03/29 00:26:58;;;;;;;5.43;2.75;;;8.00;95.40;;;;;;5094062;28;20288;-76
2023/03/29 00:29:25;;;;;;;5.22;3.58;;;8.00;95.40;;;;;;5095195;28;20227;-76
2023/03/29 00:31:54;;;;;;;5.25;3.42;;;8.00;95.20;;;;;;5094923;28;20215;-77
2023/03/29 00:34:23;;;;;;;9.60;3.25;;;7.90;95.20;;;;;;5094547;28;20219;-76
2023/03/29 00:36:51;;;;;;;5.60;3.35;;;7.90;95.10;;;;;;5094236;28;20249;-76
2023/03/29 00:39:20;;;;;;;4.70;3.58;;;7.90;95.20;;;;;;5094971;28;20223;-76
2023/03/29 00:41:47;;;;;;;3.15;2.85;;;7.90;95.40;;;;;;5094388;28;20304;-77
2023/03/29 00:44:51;;;;;;;3.83;3.00;;;7.90;95.50;;;;;;5095696;28;20581;-78
2023/03/29 00:47:22;;;;;;;7.03;3.03;;;7.90;95.40;;;;;;5094667;28;20680;-75
2023/03/29 00:49:51;;;;;;;8.32;5.60;;;7.80;95.50;;;;;;5095340;28;20215;-76
2023/03/29 00:52:21;;;;;;;3.53;3.00;;;7.80;95.60;;;;;;5093851;28;20222;-76
2023/03/29 00:54:52;;;;;;;5.93;3.63;;;7.80;95.60;;;;;;5095406;28;20233;-77
2023/03/29 00:57:22;;;;;;;4.20;3.13;;;7.80;95.70;;;;;;5095115;28;20225;-78
2023/03/29 00:59:52;;;;;;;7.15;3.50;;;7.80;95.70;;;;;;5094894;28;20229;-77
2023/03/29 01:02:24;;;;;;;6.03;3.00;;;7.80;95.80;;;;;;5094359;28;20717;-77
2023/03/29 01:04:59;;;;;;;5.80;2.97;;;7.80;95.90;;;;;;5094884;28;20310;-77
2023/03/29 01:07:31;;;;;;;6.50;3.10;;;7.90;95.90;;;;;;5094164;28;20738;-77
2023/03/29 01:10:04;;;;;;;5.88;3.03;;;7.80;95.70;;;;;;5094800;28;20226;-77
2023/03/29 01:12:35;;;;;;;5.63;3.75;;;7.80;95.70;;;;;;5093954;28;20688;-77
2023/03/29 01:15:06;;;;;;;5.95;3.60;;;7.80;95.60;;;;;;5089885;28;20283;-78
2023/03/29 01:17:33;;;;;;;6.38;4.38;;;7.80;95.50;;;;;;5102316;28;20227;-77
2023/03/29 01:20:12;;;;;;;6.60;3.92;;;7.80;95.60;;;;;;5100595;28;20220;-76
2023/03/29 01:22:54;;;;;;;6.35;3.28;;;7.80;95.50;;;;;;5094231;28;20341;-76
2023/03/29 01:25:31;;;;;;;6.32;3.28;;;7.80;95.60;;;;;;5094205;28;20223;-77
2023/03/29 01:28:04;;;;;;;7.50;3.58;;;7.70;95.60;;;;;;5094105;28;20288;-76
2023/03/29 01:30:33;;;;;;;10.45;3.05;;;7.70;95.60;;;;;;5085926;28;20252;-76
2023/03/29 01:33:06;;;;;;;6.53;3.50;;;7.70;95.70;;;;;;5093896;28;20234;-77
2023/03/29 01:35:40;;;;;;;5.53;3.97;;;7.70;95.80;;;;;;5094702;28;20231;-77
2023/03/29 01:38:12;;;;;;;7.40;3.00;;;7.70;95.70;;;;;;5094024;28;20308;-78
2023/03/29 01:40:39;;;;;;;3.67;3.35;;;7.70;95.60;;;;;;5093201;28;20219;-76
2023/03/29 01:43:19;;;;;;;4.05;3.45;;;7.70;95.60;;;;;;5093687;28;20300;-78
2023/03/29 01:45:50;;;;;;;3.83;3.00;;;7.70;95.50;;;;;;5093620;28;20268;-76
2023/03/29 01:48:24;;;;;;;4.47;3.70;;;7.60;95.50;;;;;;5093719;28;20219;-76
2023/03/29 01:50:54;;;;;;;6.18;3.08;;;7.60;95.50;;;;;;5093585;28;20577;-77
2023/03/29 01:53:28;;;;;;;3.58;3.28;;;7.60;95.50;;;;;;5093992;28;20748;-75
2023/03/29 01:55:59;;;;;;;7.53;3.50;;;7.60;95.50;;;;;;5093232;28;20245;-75
2023/03/29 01:58:34;;;;;;;3.92;2.53;;;7.50;95.50;;;;;;5094659;28;20684;-75
2023/03/29 02:01:08;;;;;;;3.75;2.35;;;7.50;95.50;;;;;;5114677;28;20229;-76
2023/03/29 02:03:41;;;;;;;5.07;2.30;;;7.50;95.60;;;;;;5106359;28;20222;-75
2023/03/29 02:06:10;;;;;;;10.40;3.10;;;7.50;95.80;;;;;;5095715;28;20219;-75
2023/03/29 02:08:39;;;;;;;5.05;3.50;;;7.50;95.70;;;;;;5096003;28;20237;-75
2023/03/29 02:11:07;;;;;;;4.10;2.72;;;7.40;95.70;;;;;;5093905;28;20571;-76
2023/03/29 02:13:36;;;;;;;7.35;3.10;;;7.50;95.60;;;;;;5094121;28;20569;-75
2023/03/29 02:16:04;;;;;;;4.05;2.97;;;7.40;95.50;;;;;;5093094;28;20729;-75
2023/03/29 02:18:32;;;;;;;4.53;2.72;;;7.40;95.60;;;;;;5092993;28;20223;-76
2023/03/29 02:20:59;;;;;;;7.15;2.78;;;7.40;95.60;;;;;;5093117;28;20227;-76
2023/03/29 02:23:33;;;;;;;7.93;2.83;;;7.40;95.60;;;;;;5093463;28;20215;-75
2023/03/29 02:26:02;;;;;;;4.93;2.90;;;7.40;95.50;;;;;;5093638;28;20230;-77
2023/03/29 02:28:30;;;;;;;4.22;2.78;;;7.40;95.70;;;;;;5093899;28;20230;-77
2023/03/29 02:31:05;;;;;;;7.95;3.00;;;7.40;95.70;;;;;;5093467;28;20227;-77
2023/03/29 02:33:40;;;;;;;6.20;3.33;;;7.40;95.60;;;;;;5093536;28;20231;-77
2023/03/29 02:36:14;;;;;;;5.22;3.00;;;7.40;95.70;;;;;;5093255;28;20314;-76
2023/03/29 02:38:41;;;;;;;3.20;2.40;;;7.40;95.70;;;;;;5093656;28;20232;-76
2023/03/29 02:41:11;;;;;;;6.25;3.28;;;7.40;95.70;;;;;;5093112;28;20426;-77
2023/03/29 02:43:41;;;;;;;4.90;3.20;;;7.40;95.60;;;;;;5093400;28;20243;-76
2023/03/29 02:46:19;;;;;;;6.45;3.30;;;7.40;95.60;;;;;;5092131;28;20337;-77
2023/03/29 02:48:50;;;;;;;3.63;2.90;;;7.30;95.40;;;;;;5093122;28;20230;-78
2023/03/29 02:51:20;;;;;;;6.55;2.38;;;7.30;95.50;;;;;;5092878;28;20230;-77
2023/03/29 02:53:52;;;;;;;6.20;3.25;;;7.30;95.60;;;;;;5092640;28;20292;-76
2023/03/29 02:56:19;;;;;;;8.45;3.03;;;7.30;95.60;;;;;;5093120;28;20219;-77
2023/03/29 02:58:46;;;;;;;3.85;2.85;;;7.30;95.60;;;;;;5092547;28;20288;-76
2023/03/29 03:01:16;;;;;;;9.07;3.28;;;7.30;95.70;;;;;;5092423;28;20579;-77
2023/03/29 03:03:43;;;;;;;5.82;2.92;;;7.30;95.70;;;;;;5093018;28;20619;-77
2023/03/29 03:06:11;;;;;;;5.63;3.33;;;7.30;95.70;;;;;;5092403;28;20261;-77
2023/03/29 03:08:38;;;;;;;5.65;3.00;;;7.30;95.60;;;;;;5092795;28;20288;-77
2023/03/29 03:11:06;;;;;;;3.72;3.25;;;7.30;95.60;;;;;;5091904;28;20685;-76
2023/03/29 03:13:34;;;;;;;5.40;3.08;;;7.30;95.70;;;;;;5093011;28;20250;-76
2023/03/29 03:16:01;;;;;;;6.85;3.38;;;7.30;95.70;;;;;;5098806;28;20584;-76
2023/03/29 03:18:36;;;;;;;4.22;2.88;;;7.30;95.70;;;;;;5093211;28;20643;-77
2023/03/29 03:21:04;;;;;;;6.53;3.10;;;7.20;95.60;;;;;;5091525;28;20254;-76
2023/03/29 03:23:33;;;;;;;5.07;2.95;;;7.20;95.70;;;;;;5093328;28;20575;-77
2023/03/29 03:26:00;;;;;;;4.35;3.35;;;7.20;95.60;;;;;;5092600;28;20215;-76
2023/03/29 03:28:28;;;;;;;4.32;2.88;;;7.10;95.50;;;;;;5092731;28;20224;-77
2023/03/29 03:30:55;;;;;;;4.47;3.15;;;7.10;95.70;;;;;;5095772;28;20227;-76
2023/03/29 03:33:22;;;;;;;4.68;3.35;;;7.10;95.80;;;;;;5096129;28;20241;-76
2023/03/29 03:35:50;;;;;;;4.50;3.00;;;7.10;95.70;;;;;;5096919;28;20227;-77
2023/03/29 03:38:17;;;;;;;9.63;4.03;;;7.00;95.70;;;;;;5096141;28;20292;-76
2023/03/29 03:40:44;;;;;;;5.70;3.50;;;7.00;95.70;;;;;;5096628;28;20250;-75
2023/03/29 03:43:11;;;;;;;5.65;3.72;;;6.90;95.50;;;;;;5096806;28;20234;-76
2023/03/29 03:45:38;;;;;;;7.97;4.13;;;6.90;95.50;;;;;;5097341;28;20226;-76
2023/03/29 03:48:06;;;;;;;5.65;3.85;;;6.90;95.70;;;;;;5100774;28;20250;-76
2023/03/29 03:50:33;;;;;;;4.45;3.78;;;6.90;95.80;;;;;;5101265;28;20223;-77
2023/03/29 03:53:01;;;;;;;6.38;4.40;;;6.90;95.70;;;;;;5097686;28;20673;-76
2023/03/29 03:55:32;;;;;;;6.10;4.00;;;6.80;95.70;;;;;;5097162;28;20219;-76
2023/03/29 03:57:59;;;;;;;5.97;4.13;;;6.80;95.80;;;;;;5097189;28;20285;-76
2023/03/29 04:00:26;;;;;;;6.97;4.82;;;6.80;95.80;;;;;;5096577;28;20219;-76
2023/03/29 04:02:55;;;;;;;10.27;5.10;;;6.80;95.90;;;;;;5097548;28;20293;-76
2023/03/29 04:05:22;;;;;;;8.85;5.30;;;6.80;95.80;;;;;;5105447;28;20612;-75
2023/03/29 04:07:49;;;;;;;7.95;4.85;;;6.80;96.10;;;;;;5096615;28;20231;-77
2023/03/29 04:10:17;;;;;;;6.13;4.70;;;6.80;96.00;;;;;;5096597;28;20375;-77
2023/03/29 04:12:44;;;;;;;4.45;4.05;;;6.80;96.00;;;;;;5097002;28;20224;-76
2023/03/29 04:15:12;;;;;;;8.35;5.03;;;6.80;95.90;;;;;;5095967;28;20312;-78
2023/03/29 04:17:39;;;;;;;6.13;4.82;;;6.80;95.80;;;;;;5096692;28;20309;-76
2023/03/29 04:20:12;;;;;;;5.53;4.85;;;6.80;95.90;;;;;;5100347;28;20249;-76
2023/03/29 04:22:39;;;;;;;5.80;5.25;;;6.70;96.10;;;;;;5106902;28;20678;-75
2023/03/29 04:25:09;;;;;;;8.43;4.45;;;6.70;96.30;;;;;;5108138;28;20222;-77
2023/03/29 04:27:37;;;;;;;5.50;5.05;;;6.70;96.30;;;;;;5109726;28;20272;-76
2023/03/29 04:30:06;;;;;;;10.60;5.45;;;6.70;96.20;;;;;;5110812;28;20219;-75
2023/03/29 04:32:33;;;;;;;6.53;4.85;;;6.70;96.10;;;;;;5109016;28;20223;-78
2023/03/29 04:35:00;;;;;;;5.90;4.93;;;6.70;96.10;;;;;;5114057;28;20211;-78
2023/03/29 04:37:28;;;;;;;7.32;5.25;;;6.70;96.20;;;;;;5104908;28;20657;-78
2023/03/29 04:39:56;;;;;;;8.35;4.60;;;6.70;96.30;;;;;;5096637;28;20220;-78
2023/03/29 04:42:23;;;;;;;4.90;4.50;;;6.60;96.20;;;;;;5086415;28;20276;-78
2023/03/29 04:44:52;;;;;;;7.18;5.40;;;6.70;96.30;;;;;;5095494;28;20519;-79
2023/03/29 04:47:20;;;;;;;6.78;4.57;;;6.70;96.40;;;;;;5094861;28;20661;-78
2023/03/29 04:49:47;;;;;;;6.00;4.95;;;6.70;96.30;;;;;;5095390;28;20223;-79
2023/03/29 04:52:14;;;;;;;9.60;5.22;;;6.70;96.30;;;;;;5092485;28;20720;-77
2023/03/29 04:54:41;;;;;;;7.28;4.80;;;6.70;96.30;;;;;;5103857;28;20779;-78
2023/03/29 04:57:08;;;;;;;6.78;5.60;;;6.70;96.30;;;;;;5095428;28;20234;-77
2023/03/29 04:59:35;;;;;;;9.25;4.60;;;6.70;96.30;;;;;;5094253;28;20234;-77
2023/03/29 05:02:04;;;;;;;12.35;4.93;;;6.70;96.40;;;;;;5094988;28;20307;-76
2023/03/29 05:04:31;;;;;;;7.22;4.50;;;6.70;96.40;;;;;;5095138;28;20234;-77
2023/03/29 05:07:00;;;;;;;6.38;4.65;;;6.70;96.50;;;;;;5094871;28;20227;-75
2023/03/29 05:09:27;;;;;;;8.50;4.25;;;6.70;96.40;;;;;;5094215;28;20232;-76
2023/03/29 05:11:54;;;;;;;4.70;4.20;;;6.70;96.30;;;;;;5094892;28;20219;-76
2023/03/29 05:14:22;;;;;;;6.35;4.43;;;6.70;96.40;;;;;;5094762;28;20220;-77
2023/03/29 05:16:52;;;;;;;6.47;4.90;;;6.70;96.50;;;;;;5093741;28;20223;-76
2023/03/29 05:19:21;;;;;;;7.55;4.10;;;6.70;96.40;;;;;;5094326;28;20231;-76
2023/03/29 05:21:48;;;;;;;5.88;5.20;;;6.70;96.40;;;;;;5094108;28;20223;-76
2023/03/29 05:24:16;;;;;;;13.65;5.60;;;6.70;96.40;;;;;;5094588;28;20254;-77
2023/03/29 05:26:43;;;;;;;8.77;4.47;;;6.60;96.30;;;;;;5094152;28;20261;-76
2023/03/29 05:29:11;;;;;;;8.25;4.95;;;6.60;96.30;;;;;;5094182;28;20227;-76
2023/03/29 05:31:38;;;;;;;5.55;4.95;;;6.60;96.30;;;;;;5094265;28;20306;-77
2023/03/29 05:34:06;;;;;;;6.15;3.95;;;6.70;96.60;;;;;;5094343;28;20706;-76
2023/03/29 05:36:34;;;;;;;5.15;4.50;;;6.70;96.70;;;;;;5093651;28;20219;-77
2023/03/29 05:39:01;;;;;;;5.55;4.07;;;6.70;96.30;;;;;;5094510;28;20352;-76
2023/03/29 05:41:28;;;;;;;7.60;3.78;;;6.70;96.40;;;;;;5093586;28;20249;-76
2023/03/29 05:43:55;;;;;;;6.40;3.88;;;6.70;96.20;;;;;;5093423;28;20307;-76
2023/03/29 05:46:22;;;;;;;4.57;3.90;;;6.70;96.30;;;;;;5094185;28;20215;-77
2023/03/29 05:48:49;;;;;;;9.35;4.30;;;6.70;96.40;;;;;;5093136;28;20653;-76
2023/03/29 05:51:17;;;;;;;5.72;4.15;;;6.70;96.30;;;;;;5093442;28;20260;-76
2023/03/29 05:53:46;;;;;;;5.97;5.28;;;6.60;96.40;;;;;;5092596;28;20247;-76
2023/03/29 05:56:14;;;;;;;5.85;5.15;;;6.60;96.60;;;;;;5093814;28;20223;-76
2023/03/29 05:58:42;;;;;;;5.93;4.00;;;6.60;96.80;;;;;;5092892;28;20227;-77
2023/03/29 06:01:12;;;;;;;5.22;4.68;;;6.70;96.70;;;;;;5093700;28;20239;-77
2023/03/29 06:06:25;;;;;;;5.88;4.40;;;6.80;96.90;;;;;;5093416;28;20211;-76
2023/03/29 06:08:53;;;;;;;9.68;4.45;;;6.80;97.00;;;;;;5093174;28;20219;-76
2023/03/29 06:11:21;;;;;;;7.28;4.85;;;6.90;96.90;;;;;;5093550;28;20242;-76
2023/03/29 06:13:48;;;;;;;15.07;4.97;;;7.00;96.90;;;;;;5092285;28;20238;-76
2023/03/29 06:16:15;;;;;;;6.70;5.97;;;7.10;97.00;;;;;;5093516;28;20551;-76
2023/03/29 06:18:43;;;;;;;7.72;4.80;;;7.10;96.90;;;;;;5092619;28;20259;-77
2023/03/29 06:21:10;;;;;;;10.10;5.75;;;7.10;96.70;;;;;;5093367;28;20545;-74
2023/03/29 06:23:38;;;;;;;7.60;5.10;;;7.10;96.20;;;;;;5092353;28;20323;-75
2023/03/29 06:26:09;;;;;;;6.57;5.63;;;7.20;96.30;;;;;;5093399;28;20302;-75
2023/03/29 06:28:36;;;;;;;10.48;6.30;;;7.20;96.00;;;;;;5092570;28;20235;-76
2023/03/29 06:31:04;;;;;;;8.48;4.97;;;7.20;95.70;;;;;;5092974;28;20223;-75
2023/03/29 06:33:32;;;;;;;13.80;6.88;;;7.30;95.80;;;;;;5092962;28;20227;-76
2023/03/29 06:36:00;;;;;;;13.23;6.25;;;7.30;95.90;;;;;;5084544;28;20540;-76
2023/03/29 06:38:27;;;;;;;6.28;4.97;;;7.30;95.90;;;;;;5093047;28;20227;-76
2023/03/29 06:41:09;;;;;;;10.02;5.75;;;7.40;96.00;;;;;;5092445;28;20231;-76
2023/03/29 06:43:37;;;;;;;9.73;4.80;;;7.40;95.80;;;;;;5084390;28;20314;-76
2023/03/29 06:46:07;;;;;;;10.02;4.95;;;7.50;95.90;;;;;;5092221;28;20218;-76
2023/03/29 06:48:34;;;;;;;6.70;4.65;;;7.50;95.70;;;;;;5092386;28;20500;-76
2023/03/29 06:51:01;;;;;;;5.00;4.13;;;7.60;95.50;;;;;;5092551;28;20345;-76
2023/03/29 06:53:31;;;;;;;6.68;4.28;;;7.60;95.30;;;;;;5092870;28;20242;-77
2023/03/29 06:55:58;;;;;;;11.00;5.65;;;7.60;95.50;;;;;;5092372;28;20239;-77
2023/03/29 06:58:29;;;;;;;5.63;4.72;;;7.70;95.60;;;;;;5092296;28;20241;-77
2023/03/29 07:01:00;;;;;;;9.35;5.20;;;7.80;95.60;;;;;;5092058;28;20227;-76
2023/03/29 07:03:27;;;;;;;6.88;5.07;;;7.80;95.20;;;;;;5092341;28;20571;-76
2023/03/29 07:06:03;;;;;;;9.10;4.25;;;7.80;95.30;;;;;;5092385;28;20234;-77
2023/03/29 07:08:30;;;;;;;10.90;4.57;;;7.80;95.10;;;;;;5092909;28;20227;-76
2023/03/29 07:10:58;;;;;;;6.47;4.22;;;7.80;94.90;;;;;;5092127;28;20302;-76
2023/03/29 07:13:26;;;;;;;5.22;4.72;;;7.80;95.20;;;;;;5092737;28;20552;-76
2023/03/29 07:15:55;;;;;;;8.93;4.60;;;7.80;95.10;;;;;;5091835;28;20254;-77
2023/03/29 07:18:22;;;;;;;6.05;4.88;;;7.90;95.30;;;;;;5092636;28;20219;-76
2023/03/29 07:20:50;;;;;;;6.82;4.95;;;8.00;95.20;;;;;;5092211;28;20234;-76
2023/03/29 07:23:18;;;;;;;6.80;4.72;;;8.00;95.00;;;;;;5092940;28;20223;-76
2023/03/29 07:25:46;;;;;;;8.90;4.30;;;8.00;94.90;;;;;;5092347;28;20219;-76
2023/03/29 07:28:13;;;;;;;9.98;4.95;;;8.10;94.60;;;;;;5091868;28;20312;-76
2023/03/29 07:30:40;;;;;;;9.75;4.70;;;8.00;94.20;;;;;;5092756;28;20215;-76
2023/03/29 07:33:08;;;;;;;7.57;4.32;;;8.00;94.50;;;;;;5092202;28;20229;-76
2023/03/29 07:35:37;;;;;;;5.82;3.80;;;8.10;94.50;;;;;;5092846;28;20223;-76
2023/03/29 07:38:04;;;;;;;6.60;4.22;;;8.20;94.40;;;;;;5092008;28;20302;-76
2023/03/29 07:40:32;;;;;;;6.18;4.50;;;8.20;94.20;;;;;;5092576;28;20284;-76
2023/03/29 07:42:59;;;;;;;5.63;4.40;;;8.30;94.40;;;;;;5090569;28;20227;-76
2023/03/29 07:45:28;;;;;;;6.13;4.25;;;8.30;94.40;;;;;;5092455;28;20219;-76
2023/03/29 07:47:56;;;;;;;5.00;4.07;;;8.40;94.20;;;;;;5092006;28;20235;-76
2023/03/29 07:50:25;;;;;;;4.53;4.00;;;8.50;94.20;;;;;;5086886;28;20295;-76
2023/03/29 07:52:52;;;;;;;10.30;6.72;;;8.70;94.20;;;;;;5102784;28;20693;-76
2023/03/29 07:55:19;;;;;;;9.70;6.55;;;8.80;94.10;;;;;;5092321;28;20227;-76
2023/03/29 07:57:46;;;;;;;9.35;5.35;;;8.70;93.80;;;;;;5092367;28;20251;-76
2023/03/29 08:00:15;;;;;;;7.57;4.70;;;8.90;94.00;;;;;;5092164;28;20219;-76
2023/03/29 08:02:43;;;;;;;11.95;4.97;;;9.00;93.90;;;;;;5093012;28;20235;-76
2023/03/29 08:05:11;;;;;;;7.28;4.30;;;9.10;93.70;;;;;;5091964;28;20292;-75
2023/03/29 08:07:40;;;;;;;8.77;4.57;;;9.10;93.50;;;;;;5092667;28;20227;-76
2023/03/29 08:10:11;;;;;;;8.88;4.10;;;9.20;93.40;;;;;;5090462;28;20219;-76
2023/03/29 08:12:38;;;;;;;7.18;3.40;;;9.30;93.40;;;;;;5093154;28;20283;-75
2023/03/29 08:15:08;;;;;;;6.03;3.45;;;9.40;93.20;;;;;;5092553;28;20230;-77
2023/03/29 08:17:36;;;;;;;3.13;2.92;;;9.40;93.20;;;;;;5096204;28;20933;-77
2023/03/29 08:20:08;;;;;;;6.68;3.85;;;9.50;93.20;;;;;;5095936;28;20757;-75
2023/03/29 08:22:37;;;;;;;5.22;3.75;;;9.60;93.30;;;;;;5096745;28;20235;-77
2023/03/29 08:25:20;;;;;;;5.30;4.35;;;9.60;93.40;;;;;;5087736;28;20721;-77
2023/03/29 08:27:47;;;;;;;4.90;3.33;;;9.70;93.30;;;;;;5107078;28;20268;-77
2023/03/29 08:30:14;;;;;;;4.13;2.75;;;9.80;93.30;;;;;;5096386;28;20234;-77
2023/03/29 08:32:42;;;;;;;5.80;3.70;;;9.80;93.20;;;;;;5096700;28;20673;-77
2023/03/29 08:35:12;;;;;;;4.28;3.10;;;9.90;93.20;;;;;;5086733;28;20234;-77
2023/03/29 08:37:39;;;;;;;6.35;3.40;;;9.90;93.20;;;;;;5111913;28;20235;-78
2023/03/29 08:40:11;;;;;;;3.58;3.28;;;10.00;92.70;;;;;;5096641;28;20630;-77
2023/03/29 08:42:53;;;;;;;5.53;3.50;;;10.00;93.00;;;;;;5087037;28;20251;-77
2023/03/29 08:45:26;;;;;;;9.20;4.80;;;10.10;92.90;;;;;;5095055;28;20231;-77
2023/03/29 08:48:00;;;;;;;3.92;3.28;;;10.10;93.00;;;;;;5095539;28;20678;-77
2023/03/29 08:50:33;;;;;;;8.63;6.40;;;10.20;92.90;;;;;;5087036;28;20227;-77
2023/03/29 08:53:05;;;;;;;12.68;6.07;;;10.20;92.60;;;;;;5095454;28;20626;-76
2023/03/29 08:55:38;;;;;;;5.53;4.30;;;10.20;92.80;;;;;;5095074;28;20273;-76
2023/03/29 08:58:12;;;;;;;4.30;3.75;;;10.30;92.90;;;;;;5095057;28;20223;-76
2023/03/29 09:00:46;;;;;;;8.70;3.60;;;10.30;92.80;;;;;;5095023;28;20238;-77
2023/03/29 09:03:21;;;;;;;4.40;3.13;;;10.20;92.80;;;;;;5095056;28;20645;-77
2023/03/29 09:05:51;;;;;;;6.80;3.22;;;10.30;93.00;;;;;;5093492;28;20280;-77
2023/03/29 09:08:21;;;;;;;4.28;3.03;;;10.40;93.30;;;;;;5095284;28;20223;-77
2023/03/29 09:11:09;;;;;;;3.53;2.83;;;10.40;93.20;;;;;;5094794;28;20223;-77
2023/03/29 09:13:44;;;;;;;3.65;3.30;;;10.50;93.30;;;;;;5094644;28;20276;-77
2023/03/29 09:16:19;;;;;;;4.53;3.20;;;10.60;93.70;;;;;;5090846;28;20687;-77
2023/03/29 09:18:56;;;;;;;4.13;3.25;;;10.60;93.40;;;;;;5102324;28;20351;-76
2023/03/29 09:21:34;;;;;;;3.50;3.20;;;10.80;93.50;;;;;;5094359;28;20223;-76
2023/03/29 09:24:20;;;;;;;4.70;3.38;;;10.80;93.70;;;;;;5094460;28;20211;-77
2023/03/29 09:26:55;;;;;;;5.10;3.40;;;10.90;93.70;;;;;;5093972;28;20232;-77
2023/03/29 09:29:48;;;;;;;3.67;3.38;;;11.00;93.90;;;;;;5094391;28;20227;-77
2023/03/29 09:32:21;;;;;;;4.32;3.42;;;11.10;93.70;;;;;;5087985;28;20211;-76
2023/03/29 09:34:56;;;;;;;3.85;3.40;;;11.10;93.90;;;;;;5093569;28;20234;-77
2023/03/29 09:37:29;;;;;;;4.20;3.40;;;11.20;93.90;;;;;;5094003;28;20668;-77
2023/03/29 09:39:57;;;;;;;4.30;2.70;;;11.20;93.70;;;;;;5094406;28;20306;-77
2023/03/29 09:42:28;;;;;;;4.07;3.05;;;11.30;93.80;;;;;;5094557;28;20251;-77
2023/03/29 09:45:04;;;;;;;4.47;3.60;;;11.40;93.90;;;;;;5094499;28;20273;-75
2023/03/29 09:47:35;;;;;;;3.30;2.90;;;11.50;93.90;;;;;;5091503;28;20284;-76
2023/03/29 09:50:09;;;;;;;5.35;3.20;;;11.50;93.50;;;;;;5093774;28;20261;-76
2023/03/29 09:52:36;;;;;;;3.60;2.70;;;11.60;93.60;;;;;;5094464;28;20787;-76
2023/03/29 09:55:06;;;;;;;3.45;3.15;;;11.70;93.60;;;;;;5093450;28;21439;-77
2023/03/29 09:57:34;;;;;;;5.55;3.55;;;11.80;93.40;;;;;;5093743;28;20224;-77
2023/03/29 10:00:04;;;;;;;2.88;2.67;;;11.80;93.30;;;;;;5092999;28;20540;-77
2023/03/29 10:02:34;;;;;;;9.85;4.03;;;11.90;93.30;;;;;;5093503;28;20310;-76
2023/03/29 10:05:04;;;;;;;4.03;3.50;;;12.00;93.30;;;;;;5093279;28;20649;-76
2023/03/29 10:07:43;;;;;;;4.15;3.03;;;12.10;93.30;;;;;;5093814;28;20669;-76
2023/03/29 10:10:19;;;;;;;5.25;3.25;;;12.10;93.30;;;;;;5092994;28;20296;-76
2023/03/29 10:12:50;;;;;;;7.65;3.45;;;12.20;93.20;;;;;;5093228;28;20215;-77
2023/03/29 10:15:18;;;;;;;5.60;3.85;;;12.20;93.00;;;;;;5093323;28;20615;-77
2023/03/29 10:17:45;;;;;;;5.20;3.53;;;12.20;92.90;;;;;;5093592;28;20227;-76
2023/03/29 10:20:17;;;;;;;3.58;3.28;;;12.20;92.90;;;;;;5093091;28;20215;-77
2023/03/29 10:22:49;;;;;;;8.18;4.20;;;12.20;92.90;;;;;;5093648;28;20310;-75
2023/03/29 10:25:18;;;;;;;4.47;3.47;;;12.20;93.00;;;;;;5092872;28;20543;-78
2023/03/29 10:27:48;;;;;;;4.95;4.40;;;12.30;92.90;;;;;;5093755;28;20223;-77
2023/03/29 10:30:22;;;;;;;7.00;3.55;;;12.40;92.80;;;;;;5093169;28;20296;-77
2023/03/29 10:32:56;;;;;;;4.32;3.05;;;12.50;92.80;;;;;;5092804;28;20309;-76
2023/03/29 10:35:27;;;;;;;5.80;3.10;;;12.60;92.80;;;;;;5093267;28;20238;-76
2023/03/29 10:37:58;;;;;;;3.97;3.05;;;12.70;92.90;;;;;;5093258;28;20268;-76
2023/03/29 10:40:34;;;;;;;6.70;3.55;;;12.80;92.80;;;;;;5092958;28;20219;-77
2023/03/29 10:43:14;;;;;;;3.78;3.40;;;12.80;92.40;;;;;;5089796;28;20226;-74
2023/03/29 10:45:42;;;;;;;3.05;2.85;;;12.90;92.50;;;;;;5099532;28;20641;-77
2023/03/29 10:48:12;;;;;;;3.17;2.75;;;13.00;92.60;;;;;;5093423;28;20223;-76
2023/03/29 10:50:39;;;;;;;3.50;3.05;;;13.00;92.50;;;;;;5093360;28;20608;-76
2023/03/29 10:53:14;;;;;;;3.50;3.20;;;13.10;92.30;;;;;;5093880;28;20257;-77
2023/03/29 10:55:49;;;;;;;3.50;3.10;;;13.10;92.20;;;;;;5093550;28;20214;-76
2023/03/29 10:58:32;;;;;;;3.95;3.58;;;13.10;92.00;;;;;;5092945;28;20295;-78
2023/03/29 11:01:00;;;;;;;3.83;3.45;;;13.10;92.20;;;;;;5093335;28;20215;-77
2023/03/29 11:03:47;;;;;;;4.18;3.67;;;13.20;92.20;;;;;;5093496;28;20227;-76
2023/03/29 11:06:23;;;;;;;3.25;2.80;;;13.20;92.20;;;;;;5092861;28;20310;-76
2023/03/29 11:09:02;;;;;;;4.15;3.42;;;13.10;91.80;;;;;;5092493;28;20223;-76
2023/03/29 11:14:41;;;;;;;4.72;4.32;;;13.00;92.10;;;;;;5083877;28;20231;-76
2023/03/29 11:17:27;;;;;;;14.30;10.00;;;12.90;91.80;;;;;;5092835;28;20305;-77
2023/03/29 11:20:09;;;;;;;5.70;5.07;;;12.80;91.90;;;;;;5093056;28;20300;-77
2023/03/29 11:22:45;;;;;;;9.13;6.55;;;12.80;92.10;;;;;;5092980;28;20219;-77
2023/03/29 11:25:25;;;;;;;4.72;4.20;;;12.80;92.30;;;;;;5091828;28;20606;-76
2023/03/29 11:27:59;;;;;;;3.60;3.30;;;12.80;92.70;;;;;;5093072;28;20265;-77
2023/03/29 11:30:35;;;;;;;3.85;3.55;;;12.80;92.60;;;;;;5093034;28;20220;-77
2023/03/29 11:33:19;;;;;;;3.67;3.00;;;12.80;92.50;;;;;;5093164;28;20219;-77
2023/03/29 11:35:53;;;;;;;3.67;2.28;;;12.90;92.70;;;;;;5092661;28;20223;-77
2023/03/29 11:38:26;;;;;;;3.35;2.60;;;13.00;92.70;;;;;;5092879;28;20292;-77
2023/03/29 11:40:59;;;;;;;4.28;3.05;;;13.00;92.40;;;;;;5090521;28;20216;-77
2023/03/29 11:43:32;;;;;;;5.80;3.40;;;13.10;92.30;;;;;;5092641;28;20223;-77
2023/03/29 11:46:08;;;;;;;5.43;3.00;;;13.20;92.40;;;;;;5094902;28;20300;-76
2023/03/29 11:48:41;;;;;;;4.13;3.17;;;13.20;92.30;;;;;;5092803;28;20359;-77
2023/03/29 11:51:15;;;;;;;3.53;3.20;;;13.30;92.10;;;;;;5094698;28;20296;-77
2023/03/29 11:53:51;;;;;;;5.43;3.40;;;13.20;92.10;;;;;;5096032;28;20226;-77
2023/03/29 11:56:28;;;;;;;4.20;3.80;;;13.30;92.10;;;;;;5096721;28;20233;-77
2023/03/29 11:59:00;;;;;;;5.10;3.85;;;13.30;92.10;;;;;;5096157;28;20227;-76
2023/03/29 12:01:34;;;;;;;5.53;3.53;;;13.30;92.10;;;;;;5096630;28;20429;-76
2023/03/29 12:04:07;;;;;;;3.30;2.70;;;13.30;92.10;;;;;;5095938;28;20306;-76
2023/03/29 12:06:39;;;;;;;3.55;2.85;;;13.30;92.10;;;;;;5096139;28;20844;-76
2023/03/29 12:12:03;;;;;;;4.45;3.30;;;13.50;92.10;;;;;;5095927;28;20248;-77
2023/03/29 12:14:42;;;;;;;2.90;2.70;;;13.50;91.90;;;;;;5094902;28;20273;-77
2023/03/29 12:17:15;;;;;;;3.08;2.78;;;13.60;91.60;;;;;;5096359;28;20219;-77
2023/03/29 12:19:50;;;;;;;6.15;5.53;;;13.60;91.20;;;;;;5093836;28;20260;-77
2023/03/29 12:22:18;;;;;;;6.10;5.50;;;13.60;90.90;;;;;;5102069;28;20318;-78
2023/03/29 12:24:50;;;;;;;3.67;3.38;;;13.70;90.90;;;;;;5093099;28;20219;-77
2023/03/29 12:27:25;;;;;;;3.90;3.20;;;13.70;90.90;;;;;;5095856;28;20215;-77
2023/03/29 12:30:16;;;;;;;3.40;3.10;;;13.80;90.80;;;;;;5095654;28;20543;-77
2023/03/29 12:33:01;;;;;;;5.83;3.33;;;13.90;90.80;;;;;;5094283;28;20465;-76
2023/03/29 12:35:38;;;;;;;6.57;3.60;;;13.90;90.60;;;;;;5093204;28;20476;-76
2023/03/29 12:38:16;;;;;;;5.90;3.38;;;13.90;90.20;;;;;;5095342;28;20517;-77
2023/03/29 12:40:46;;;;;;;4.30;3.83;;;14.00;90.00;;;;;;5095847;28;20227;-77
2023/03/29 12:43:23;;;;;;;4.00;3.70;;;13.90;89.70;;;;;;5095820;28;20465;-76
2023/03/29 12:45:54;;;;;;;3.50;3.20;;;14.00;90.20;;;;;;5095879;28;20282;-77
2023/03/29 12:48:27;;;;;;;2.67;2.47;;;14.00;90.00;;;;;;5096798;28;20241;-76
2023/03/29 12:51:01;;;;;;;3.73;3.20;;;14.00;89.60;;;;;;5094947;28;20603;-77
2023/03/29 12:53:34;;;;;;;7.32;3.30;;;13.90;89.00;;;;;;5094954;28;20808;-77
2023/03/29 12:56:12;;;;;;;3.87;3.47;;;13.90;88.90;;;;;;5094501;28;20683;-76
2023/03/29 12:59:06;;;;;;;3.17;2.88;;;13.90;89.30;;;;;;5095297;28;20488;-76
2023/03/29 13:01:35;;;;;;;3.72;3.28;;;13.90;89.30;;;;;;5094785;28;20221;-76
2023/03/29 13:04:17;;;;;;;5.00;3.33;;;13.90;89.10;;;;;;5094735;28;20311;-76
2023/03/29 13:07:02;;;;;;;3.58;3.28;;;14.00;88.90;;;;;;5094749;28;20473;-77
2023/03/29 13:09:34;;;;;;;3.50;3.20;;;14.00;88.80;;;;;;5094268;28;20541;-77
2023/03/29 13:12:13;;;;;;;2.80;2.50;;;14.00;88.90;;;;;;5095044;28;20224;-78
2023/03/29 13:14:43;;;;;;;3.42;3.00;;;14.00;88.60;;;;;;5094229;28;20266;-79
2023/03/29 13:17:22;;;;;;;3.10;2.67;;;14.10;88.50;;;;;;5094689;28;20556;-78
2023/03/29 13:20:03;;;;;;;6.43;3.42;;;14.10;88.20;;;;;;5094601;28;20511;-77
2023/03/29 13:22:46;;;;;;;3.57;3.27;;;14.10;88.00;;;;;;5094277;28;20254;-77